الصفحة الرئيسية
METAR-TAF:

METAR-TAF

مطار :

Tongatapu, تونجا

دائرة عرض: 21-14S, خط طول: 175-09W, ارتفاع: 38 متر

مراقبة الطقس الحالي

تاريخ ووقت الإصدار 42 دقيقة قبل الساعة 18:00UTC
ريح 10 عقدة من الشرق/الجنوب الشرقي
درجة الحرارة 22°درجة مئوية
الرطوبة 73%
ضغط 1019 hPa
الرؤية 10 كم أو أكثر
غيوم قليلة على ارتفاع 900 قدم
غيوم متفرقة على ارتفاع 1600 قدم
غيوم مفككة على ارتفاع 4000 قدم

METAR: NFTF 161800Z 12010KT 9999 FEW009 SCT016 BKN040 22/17 Q1019

زمن: 07:42 (18:42 UTC)

توقعات

تاريخ ووقت الإصدار 1ساعة و 37 دقيقة قبل الساعة 17:05UTC
التوقعات صالحة من16 الساعة 18 UTC إلى 17 الساعة 18 UTC
ريح 12 عقدة من الشرق/الجنوب الشرقي
الرؤية 10 كم أو أكثر
غيوم قليلة على ارتفاع 1600 قدم
غيوم متفرقة على ارتفاع 4000 قدم
نظرية الاحتمالات 30% :
مؤقت
من 16 الساعة 18 UTC إلى 17 الساعة 06 UTC
ريح 15 عقدة من الشرق/الجنوب الشرقي تتزايد حتى 25 عقدة

TAF: NFTF 161705Z 1618/1718 11012KT 9999 FEW016 SCT040 PROB30 TEMPO 1618/1706 11015G25KT

أرصاد الطقس والتوقعات من أكثر من 4000 مطار (تقارير الطقس للمطار METAR والتنبؤ بالطقس بالمطارTAF).

المحطات المتاحة هي النقط الصفراء والحمراء على الخريطة.

حرك المؤشر فوق النقطة لمعرفة اسم المحطة.

ثم انقر لمعرفة أرصاد وتوقعات الطقس.

لتغيير الخارطة: اضغط على الأزرار الخضراء مع رمز الصليب الأسود للتكبير. على الزر الأخضر مع شرطة للتصغير، أو على الأسهم الخضراء للخرائط المجاورة.


METAR-TAF: